Map

Track Data

SID SEASON NUMBER BASIN SUBBASIN NAME ISO_TIME NATURE LAT LON WMO_WIND WMO_PRES WMO_AGENCY TRACK_TYPE DIST2LAND LANDFALL IFLAG USA_AGENCY USA_ATCF_ID USA_LAT USA_LON USA_RECORD USA_STATUS USA_WIND USA_PRES USA_SSHS USA_R34_NE USA_R34_SE USA_R34_SW USA_R34_NW USA_R50_NE USA_R50_SE USA_R50_SW USA_R50_NW USA_R64_NE USA_R64_SE USA_R64_SW USA_R64_NW USA_POCI USA_ROCI USA_RMW USA_EYE TOKYO_LAT TOKYO_LON TOKYO_GRADE TOKYO_WIND TOKYO_PRES TOKYO_R50_DIR TOKYO_R50_LONG TOKYO_R50_SHORT TOKYO_R30_DIR TOKYO_R30_LONG TOKYO_R30_SHORT TOKYO_LAND CMA_LAT CMA_LON CMA_CAT CMA_WIND CMA_PRES HKO_LAT HKO_LON HKO_CAT HKO_WIND HKO_PRES NEWDELHI_LAT NEWDELHI_LON NEWDELHI_GRADE NEWDELHI_WIND NEWDELHI_PRES NEWDELHI_CI NEWDELHI_DP NEWDELHI_POCI REUNION_LAT REUNION_LON REUNION_TYPE REUNION_WIND REUNION_PRES REUNION_TNUM REUNION_CI REUNION_RMW REUNION_R34_NE REUNION_R34_SE REUNION_R34_SW REUNION_R34_NW REUNION_R50_NE REUNION_R50_SE REUNION_R50_SW REUNION_R50_NW REUNION_R64_NE REUNION_R64_SE REUNION_R64_SW REUNION_R64_NW BOM_LAT BOM_LON BOM_TYPE BOM_WIND BOM_PRES BOM_TNUM BOM_CI BOM_RMW BOM_R34_NE BOM_R34_SE BOM_R34_SW BOM_R34_NW BOM_R50_NE BOM_R50_SE BOM_R50_SW BOM_R50_NW BOM_R64_NE BOM_R64_SE BOM_R64_SW BOM_R64_NW BOM_ROCI BOM_POCI BOM_EYE BOM_POS_METHOD BOM_PRES_METHOD NADI_LAT NADI_LON NADI_CAT NADI_WIND NADI_PRES WELLINGTON_LAT WELLINGTON_LON WELLINGTON_WIND WELLINGTON_PRES DS824_LAT DS824_LON DS824_STAGE DS824_WIND DS824_PRES TD9636_LAT TD9636_LON TD9636_STAGE TD9636_WIND TD9636_PRES TD9635_LAT TD9635_LON TD9635_WIND TD9635_PRES TD9635_ROCI NEUMANN_LAT NEUMANN_LON NEUMANN_CLASS NEUMANN_WIND NEUMANN_PRES MLC_LAT MLC_LON MLC_CLASS MLC_WIND MLC_PRES USA_GUST BOM_GUST BOM_GUST_PER REUNION_GUST REUNION_GUST_PER USA_SEAHGT USA_SEARAD_NE USA_SEARAD_SE USA_SEARAD_SW USA_SEARAD_NW STORM_SPEED STORM_DIR
1905052S16070 1905 8 SI MM NOT_NAMED 1905-02-21 06:00:00 NR -15.6000 69.5000 reunion main 1344 1324 _____O________ -1 -15.6000 69.5000 99 9.90000 4 258
1905052S16070 1905 8 SI MM NOT_NAMED 1905-02-21 09:00:00 NR -15.6407 69.3022 main 1324 1300 _____P________ -1 -15.6407 69.3022 99 4 257
1905052S16070 1905 8 SI MM NOT_NAMED 1905-02-21 12:00:00 NR -15.6869 69.1006 main 1300 1281 _____P________ -1 -15.6869 69.1006 99 4 255
1905052S16070 1905 8 SI MM NOT_NAMED 1905-02-21 15:00:00 NR -15.7444 68.8916 main 1281 1266 _____P________ -1 -15.7444 68.8916 99 3 248
1905052S16070 1905 8 SI MM NOT_NAMED 1905-02-21 18:00:00 NR -15.8151 68.7770 main 1266 1242 _____P____O___ -1 -15.8189 68.6712 99 -15.8000 69.2000 7 3 240
1905052S16070 1905 8 SI MM NOT_NAMED 1905-02-21 21:00:00 NR -15.9202 68.5786 main 1242 1208 _____P____P___ -1 -15.9161 68.4358 99 -15.9284 68.8642 7 5 241
1905052S16070 1905 8 SI MM NOT_NAMED 1905-02-22 00:00:00 NR -16.0516 68.3276 main 1204 1180 _____P____P___ -1 -16.0415 68.1814 99 -16.0652 68.5226 7 6 241
1905052S16070 1905 8 SI MM NOT_NAMED 1905-02-22 03:00:00 NR -16.2102 68.0369 main 1170 1132 _____P____P___ -1 -16.2009 67.9042 99 -16.2194 68.1697 7 7 240
1905052S16070 1905 8 SI MM NOT_NAMED 1905-02-22 06:00:00 NR -16.4000 67.7000 reunion main 1132 1093 _____O____O___ -1 -16.4000 67.6000 99 9.90000 -16.4000 67.8000 7 8 238
1905052S16070 1905 8 SI MM NOT_NAMED 1905-02-22 09:00:00 NR -16.6284 67.3396 main 1083 1041 _____P____P___ -1 -16.6419 67.2674 99 -16.6148 67.4118 7 9 235
1905052S16070 1905 8 SI MM NOT_NAMED 1905-02-22 12:00:00 NR -16.8942 66.9673 main 1041 989 _____P____P___ -1 -16.9207 66.9146 99 -16.8677 67.0199 7 9 231
1905052S16070 1905 8 SI MM NOT_NAMED 1905-02-22 15:00:00 NR -17.1948 66.5979 main 989 947 _____P____P___ -1 -17.2278 66.5527 99 -17.1617 66.6430 7 9 227
1905052S16070 1905 8 SI MM NOT_NAMED 1905-02-22 18:00:00 NR -17.5275 66.2464 main 937 892 _____P____O___ -1 -17.5550 66.1928 99 -17.5000 66.3000 7 10 223
1905052S16070 1905 8 SI MM NOT_NAMED 1905-02-22 21:00:00 NR -17.9020 65.9161 main 892 848 _____P____P___ -1 -17.8939 65.8461 99 -17.9101 65.9860 7 10 218
1905052S16070 1905 8 SI MM NOT_NAMED 1905-02-23 00:00:00 NR -18.2969 65.6173 main 848 816 _____P____P___ -1 -18.2365 65.5240 99 -18.3573 65.7106 7 10 214
1905052S16070 1905 8 SI MM NOT_NAMED 1905-02-23 03:00:00 NR -18.6877 65.3589 main 816 788 _____P____P___ -1 -18.5745 65.2381 99 -18.8009 65.4798 7 9 210
1905052S16070 1905 8 SI MM NOT_NAMED 1905-02-23 06:00:00 NR -19.0500 65.1500 reunion main 788 761 _____O____O___ -1 -18.9000 65.0000 99 9.90000 -19.2000 65.3000 7 7 208
1905052S16070 1905 8 SI MM NOT_NAMED 1905-02-23 09:00:00 NR -19.3345 64.9913 main 761 746 _____P____P___ -1 -19.1648 64.8126 99 -19.5041 65.1699 7 6 205
1905052S16070 1905 8 SI MM NOT_NAMED 1905-02-23 12:00:00 NR -19.5897 64.8786 main 746 733 _____P____P___ -1 -19.4196 64.6680 99 -19.7597 65.0892 7 5 200
1905052S16070 1905 8 SI MM NOT_NAMED 1905-02-23 15:00:00 NR -19.8273 64.8016 main 733 731 _____P____P___ -1 -19.6691 64.5643 99 -19.9855 65.0389 7 5 194
1905052S16070 1905 8 SI MM NOT_NAMED 1905-02-23 18:00:00 NR -20.0590 64.7500 main 720 719 _____P____O___ -1 -19.9179 64.4999 99 -20.2000 65.0000 7 5 193
1905052S16070 1905 8 SI MM NOT_NAMED 1905-02-23 21:00:00 NR -20.2853 64.6938 main 719 719 _____P____P___ -1 -20.1708 64.4730 99 -20.3997 64.9146 7 5 190
1905052S16070 1905 8 SI MM NOT_NAMED 1905-02-24 00:00:00 NR -20.5149 64.6612 main 719 719 _____P____P___ -1 -20.4324 64.4819 99 -20.5975 64.8405 7 5 185
1905052S16070 1905 8 SI MM NOT_NAMED 1905-02-24 03:00:00 NR -20.7644 64.6605 main 720 720 _____P____P___ -1 -20.7073 64.5248 99 -20.8215 64.7961 7 5 176
1905052S16070 1905 8 SI MM NOT_NAMED 1905-02-24 06:00:00 NR -21.0500 64.7000 reunion main 722 722 _____O____O___ -1 -21.0000 64.6000 99 9.90000 -21.1000 64.8000 7 7 171
1905052S16070 1905 8 SI MM NOT_NAMED 1905-02-24 09:00:00 NR -21.4219 64.7729 main 737 737 _____P____P___ -1 -21.3560 64.6877 99 -21.4878 64.8582 7 8 167
1905052S16070 1905 8 SI MM NOT_NAMED 1905-02-24 12:00:00 NR -21.8301 64.8903 main 755 755 _____P____P___ -1 -21.7327 64.8134 99 -21.9274 64.9671 7 9 163
1905052S16070 1905 8 SI MM NOT_NAMED 1905-02-24 15:00:00 NR -22.2495 65.0441 main 775 775 _____P____P___ -1 -22.1207 64.9707 99 -22.3784 65.1176 7 9 159
1905052S16070 1905 8 SI MM NOT_NAMED 1905-02-24 18:00:00 NR -22.6553 65.2265 main 810 810 _____P____O___ -1 -22.5105 65.1531 99 -22.8000 65.3000 7 9 155
1905052S16070 1905 8 SI MM NOT_NAMED 1905-02-24 21:00:00 NR -23.0271 65.4296 main 841 841 _____P____P___ -1 -22.8927 65.3540 99 -23.1614 65.5052 7 8 152
1905052S16070 1905 8 SI MM NOT_NAMED 1905-02-25 00:00:00 NR -23.3489 65.6354 main 871 871 _____P____P___ -1 -23.2579 65.5667 99 -23.4703 65.7271 7 7 148
1905052S16070 1905 8 SI MM NOT_NAMED 1905-02-25 03:00:00 NR -23.6459 65.8431 main 903 903 _____P____P___ -1 -23.5968 65.7843 99 -23.7440 65.9605 7 7 147
1905052S16070 1905 8 SI MM NOT_NAMED 1905-02-25 06:00:00 NR -23.9200 66.0400 reunion main 934 934 _____O____O___ -1 -23.9000 66.0000 99 9.90000 -24.0000 66.2000 7 6 147
1905052S16070 1905 8 SI MM NOT_NAMED 1905-02-25 09:00:00 NR -24.1608 66.2079 main 966 966 _____P________ -1 -24.1608 66.2079 99 7 6 144
1905052S16070 1905 8 SI MM NOT_NAMED 1905-02-25 12:00:00 NR -24.3823 66.4077 main 994 994 _____P________ -1 -24.3823 66.4077 99 7 5 139
1905052S16070 1905 8 SI MM NOT_NAMED 1905-02-25 15:00:00 NR -24.5701 66.6005 main 1021 1021 _____P________ -1 -24.5701 66.6005 99 7 5 135
1905052S16070 1905 8 SI MM NOT_NAMED 1905-02-25 18:00:00 NR -24.7298 66.7874 main 1044 1044 _____P________ -1 -24.7298 66.7874 99 4 132
1905052S16070 1905 8 SI MM NOT_NAMED 1905-02-25 21:00:00 NR -24.8671 66.9695 main 1072 1072 _____P________ -1 -24.8671 66.9695 99 4 128
1905052S16070 1905 8 SI MM NOT_NAMED 1905-02-26 00:00:00 NR -24.9876 67.1482 main 1086 1086 _____P________ -1 -24.9876 67.1482 99 4 125
1905052S16070 1905 8 SI MM NOT_NAMED 1905-02-26 03:00:00 NR -25.0967 67.3246 main 1109 1109 _____P________ -1 -25.0967 67.3246 99 4 124
1905052S16070 1905 8 SI MM NOT_NAMED 1905-02-26 06:00:00 NR -25.2000 67.5000 reunion main 1132 _____O________ -1 -25.2000 67.5000 99 9.90000 4 123

About IBTrACS Database

This database is a web-friendly format of International Best Track Archive for Climate Stewardship (IBTrACS), a global best track data archive curated by NOAA dating back to 1842.

Updated: 2021-11-26